createdAt,value
2023-02-25T00:01:36.768Z,3.60
2023-02-25T00:04:04.037Z,3.95
2023-02-25T00:06:30.895Z,3.45
2023-02-25T00:08:57.724Z,2.60
2023-02-25T00:11:26.256Z,2.90
2023-02-25T00:13:53.448Z,2.03
2023-02-25T00:16:23.672Z,2.33
2023-02-25T00:18:58.806Z,2.63
2023-02-25T00:21:25.956Z,2.60
2023-02-25T00:23:53.657Z,2.75
2023-02-25T00:26:21.802Z,3.13
2023-02-25T00:28:49.549Z,2.30
2023-02-25T00:31:21.217Z,2.45
2023-02-25T00:33:49.509Z,2.10
2023-02-25T00:36:24.325Z,2.50
2023-02-25T00:38:54.229Z,2.05
2023-02-25T00:41:26.832Z,2.08
2023-02-25T00:43:59.676Z,2.30
2023-02-25T00:46:28.732Z,1.58
2023-02-25T00:48:55.865Z,1.95
2023-02-25T00:51:27.784Z,2.28
2023-02-25T00:53:56.490Z,1.75
2023-02-25T00:56:26.070Z,1.75
2023-02-25T00:58:54.136Z,1.85
2023-02-25T01:01:31.699Z,1.85
2023-02-25T01:03:59.885Z,2.03
2023-02-25T01:06:28.820Z,1.45
2023-02-25T01:08:57.642Z,1.42
2023-02-25T01:11:30.119Z,1.38
2023-02-25T01:13:59.945Z,1.42
2023-02-25T01:16:30.290Z,1.80
2023-02-25T01:19:00.833Z,2.05
2023-02-25T01:21:35.861Z,1.58
2023-02-25T01:24:15.827Z,1.48
2023-02-25T01:26:45.822Z,1.30
2023-02-25T01:29:23.360Z,1.70
2023-02-25T01:31:56.259Z,1.08
2023-02-25T01:34:24.295Z,1.40
2023-02-25T01:36:51.900Z,1.40
2023-02-25T01:39:21.457Z,1.00
2023-02-25T01:41:51.209Z,1.48
2023-02-25T01:44:21.371Z,1.77
2023-02-25T01:46:54.096Z,1.55
2023-02-25T01:49:43.679Z,1.90
2023-02-25T01:52:20.100Z,1.88
2023-02-25T01:54:53.274Z,1.95
2023-02-25T01:57:21.749Z,1.60
2023-02-25T01:59:51.635Z,1.85
2023-02-25T02:02:23.051Z,1.70
2023-02-25T02:04:54.124Z,1.45
2023-02-25T02:07:24.661Z,2.00
2023-02-25T02:09:58.416Z,1.27
2023-02-25T02:12:47.051Z,1.52
2023-02-25T02:15:15.811Z,1.77
2023-02-25T02:17:52.103Z,1.55
2023-02-25T02:20:37.788Z,1.65
2023-02-25T02:23:22.117Z,1.67
2023-02-25T02:26:32.018Z,1.30
2023-02-25T02:29:36.700Z,1.60
2023-02-25T02:32:32.799Z,1.30
2023-02-25T02:35:18.265Z,1.20
2023-02-25T02:38:34.040Z,1.27
2023-02-25T02:41:41.429Z,1.38
2023-02-25T02:44:27.197Z,1.00
2023-02-25T02:47:12.209Z,1.10
2023-02-25T02:49:57.734Z,1.30
2023-02-25T02:52:31.972Z,0.90
2023-02-25T02:55:22.181Z,1.30
2023-02-25T02:58:00.521Z,0.75
2023-02-25T03:00:36.347Z,1.05
2023-02-25T03:03:16.111Z,0.80
2023-02-25T03:05:50.176Z,1.05
2023-02-25T03:08:30.445Z,0.80
2023-02-25T03:10:57.243Z,1.13
2023-02-25T03:13:24.144Z,0.90
2023-02-25T03:15:53.357Z,0.90
2023-02-25T03:18:43.627Z,0.70
2023-02-25T03:21:26.643Z,0.70
2023-02-25T03:23:54.871Z,0.73
2023-02-25T03:26:30.908Z,0.47
2023-02-25T03:28:58.633Z,0.68
2023-02-25T03:31:48.992Z,0.80
2023-02-25T03:34:27.400Z,0.77
2023-02-25T03:37:15.496Z,0.70
2023-02-25T03:39:49.346Z,0.75
2023-02-25T03:42:28.714Z,0.57
2023-02-25T03:45:02.052Z,0.73
2023-02-25T03:47:34.530Z,0.43
2023-02-25T03:50:11.981Z,0.80
2023-02-25T03:52:41.330Z,0.43
2023-02-25T03:55:10.309Z,0.38
2023-02-25T03:57:44.744Z,0.47
2023-02-25T04:00:26.996Z,0.52
2023-02-25T04:02:54.213Z,0.75
2023-02-25T04:05:27.642Z,0.38
2023-02-25T04:07:56.258Z,0.50
2023-02-25T04:10:23.536Z,0.60
2023-02-25T04:12:51.248Z,0.60
2023-02-25T04:15:19.786Z,0.60
2023-02-25T04:17:46.964Z,0.60
2023-02-25T04:20:19.797Z,0.60
2023-02-25T04:22:46.592Z,0.50
2023-02-25T04:25:13.469Z,0.60
2023-02-25T04:27:40.280Z,0.60
2023-02-25T04:30:08.829Z,0.60
2023-02-25T04:32:35.766Z,0.47
2023-02-25T04:35:05.926Z,0.80
2023-02-25T04:37:32.790Z,0.70
2023-02-25T04:39:59.612Z,0.98
2023-02-25T04:42:26.542Z,1.30
2023-02-25T04:44:53.369Z,1.15
2023-02-25T04:47:20.246Z,1.23
2023-02-25T04:49:47.052Z,1.60
2023-02-25T04:52:15.334Z,1.73
2023-02-25T04:54:42.503Z,1.13
2023-02-25T04:57:11.165Z,0.95
2023-02-25T04:59:38.680Z,1.40
2023-02-25T05:02:07.428Z,1.33
2023-02-25T05:04:36.849Z,1.30
2023-02-25T05:07:05.844Z,1.27
2023-02-25T05:09:34.043Z,1.15
2023-02-25T05:12:02.129Z,1.40
2023-02-25T05:14:30.826Z,1.42
2023-02-25T05:16:59.466Z,1.50
2023-02-25T05:19:26.244Z,2.30
2023-02-25T05:21:53.973Z,1.95
2023-02-25T05:24:23.499Z,2.17
2023-02-25T05:26:51.624Z,2.83
2023-02-25T05:29:18.798Z,2.90
2023-02-25T05:31:45.922Z,3.03
2023-02-25T05:34:12.853Z,2.67
2023-02-25T05:36:41.095Z,3.08
2023-02-25T05:39:07.912Z,2.78
2023-02-25T05:41:34.716Z,3.10
2023-02-25T05:44:01.526Z,3.22
2023-02-25T05:46:28.451Z,3.05
2023-02-25T05:48:55.282Z,3.67
2023-02-25T05:51:23.619Z,3.50
2023-02-25T05:53:52.421Z,3.55
2023-02-25T05:56:25.714Z,3.58
2023-02-25T05:58:53.868Z,3.85
2023-02-25T06:01:28.703Z,3.80
2023-02-25T06:03:58.510Z,3.10
2023-02-25T06:06:29.209Z,2.72
2023-02-25T06:08:56.326Z,2.90
2023-02-25T06:11:29.736Z,3.08
2023-02-25T06:13:58.581Z,3.22
2023-02-25T06:16:32.653Z,3.78
2023-02-25T06:19:02.389Z,4.50
2023-02-25T06:21:30.572Z,3.45
2023-02-25T06:23:57.804Z,3.58
2023-02-25T06:26:24.974Z,4.28
2023-02-25T06:28:52.151Z,3.92
2023-02-25T06:31:22.429Z,3.70
2023-02-25T06:33:52.411Z,3.97
2023-02-25T06:36:21.513Z,4.40
2023-02-25T06:38:49.334Z,3.90
2023-02-25T06:41:20.942Z,4.93
2023-02-25T06:43:52.235Z,4.45
2023-02-25T06:46:26.208Z,3.55
2023-02-25T06:48:54.170Z,3.78
2023-02-25T06:51:21.963Z,4.38
2023-02-25T06:53:49.787Z,4.07
2023-02-25T06:56:18.319Z,4.05
2023-02-25T06:58:45.362Z,5.05
2023-02-25T07:01:16.070Z,4.18
2023-02-25T07:06:11.678Z,3.15
2023-02-25T07:08:38.546Z,4.55
2023-02-25T07:11:30.694Z,4.38
2023-02-25T07:13:57.861Z,4.13
2023-02-25T07:16:25.563Z,4.03
2023-02-25T07:18:52.507Z,4.30
2023-02-25T07:21:19.978Z,4.80
2023-02-25T07:23:47.010Z,4.85
2023-02-25T07:26:15.699Z,4.75
2023-02-25T07:28:43.606Z,5.03
2023-02-25T07:31:17.929Z,5.47
2023-02-25T07:33:45.503Z,4.70
2023-02-25T07:36:12.763Z,5.10
2023-02-25T07:38:40.022Z,4.28
2023-02-25T07:41:13.093Z,5.40
2023-02-25T07:43:40.488Z,5.30
2023-02-25T07:46:08.521Z,4.57
2023-02-25T07:48:35.988Z,5.18
2023-02-25T07:51:08.807Z,4.85
2023-02-25T07:53:35.943Z,5.25
2023-02-25T07:56:03.338Z,5.50
2023-02-25T07:58:30.299Z,5.53
2023-02-25T08:00:57.164Z,6.57
2023-02-25T08:03:24.445Z,6.28
2023-02-25T08:05:54.251Z,5.22
2023-02-25T08:08:21.968Z,5.70
2023-02-25T08:10:49.006Z,5.55
2023-02-25T08:13:15.946Z,5.28
2023-02-25T08:15:43.949Z,4.95
2023-02-25T08:18:11.671Z,4.88
2023-02-25T08:20:38.671Z,4.75
2023-02-25T08:23:06.346Z,4.72
2023-02-25T08:25:33.272Z,5.50
2023-02-25T08:28:01.697Z,5.32
2023-02-25T08:30:28.576Z,4.70
2023-02-25T08:32:57.404Z,5.72
2023-02-25T08:35:25.774Z,5.85
2023-02-25T08:37:53.193Z,5.80
2023-02-25T08:40:20.668Z,5.45
2023-02-25T08:42:47.450Z,4.80
2023-02-25T08:45:14.289Z,4.18
2023-02-25T08:47:41.144Z,4.18
2023-02-25T08:50:09.890Z,4.43
2023-02-25T08:52:36.765Z,4.10
2023-02-25T08:55:04.665Z,3.65
2023-02-25T08:57:31.787Z,2.95
2023-02-25T08:59:58.588Z,3.03
2023-02-25T09:02:25.521Z,3.28
2023-02-25T09:04:52.574Z,3.42
2023-02-25T09:07:20.383Z,3.65
2023-02-25T09:09:47.271Z,2.78
2023-02-25T09:12:14.234Z,2.88
2023-02-25T09:14:41.047Z,3.00
2023-02-25T09:17:08.350Z,3.72
2023-02-25T09:19:38.771Z,3.53
2023-02-25T09:22:07.678Z,3.38
2023-02-25T09:24:35.127Z,2.90
2023-02-25T09:27:08.091Z,2.72
2023-02-25T09:29:36.895Z,2.90
2023-02-25T09:32:05.324Z,2.63
2023-02-25T09:34:35.931Z,2.50
2023-02-25T09:37:06.300Z,2.08
2023-02-25T09:39:33.097Z,2.50
2023-02-25T09:42:10.534Z,1.98
2023-02-25T09:44:48.103Z,2.67
2023-02-25T09:47:29.095Z,2.05
2023-02-25T09:50:21.580Z,2.05
2023-02-25T09:53:15.856Z,2.15
2023-02-25T09:55:48.779Z,2.10
2023-02-25T09:58:36.145Z,1.98
2023-02-25T10:01:11.839Z,2.13
2023-02-25T10:03:56.918Z,2.10
2023-02-25T10:06:44.353Z,1.80
2023-02-25T10:09:37.446Z,1.88
2023-02-25T10:12:37.479Z,1.80
2023-02-25T10:15:39.831Z,2.03
2023-02-25T10:18:29.186Z,1.67
2023-02-25T10:21:14.220Z,1.83
2023-02-25T10:23:51.591Z,1.60
2023-02-25T10:26:33.602Z,1.63
2023-02-25T10:29:21.056Z,1.90
2023-02-25T10:31:48.438Z,1.83
2023-02-25T10:34:26.244Z,2.75
2023-02-25T10:36:59.702Z,2.35
2023-02-25T10:39:28.860Z,1.85
2023-02-25T10:41:56.279Z,2.67
2023-02-25T10:44:23.192Z,2.30
2023-02-25T10:47:00.203Z,2.08
2023-02-25T10:49:30.504Z,1.65
2023-02-25T10:52:19.942Z,2.08
2023-02-25T10:54:51.941Z,2.00
2023-02-25T10:57:26.670Z,2.75
2023-02-25T11:00:23.916Z,1.80
2023-02-25T11:02:52.528Z,2.40
2023-02-25T11:05:43.565Z,2.97
2023-02-25T11:11:20.131Z,2.70
2023-02-25T11:16:31.656Z,1.35
2023-02-25T11:19:25.586Z,1.73
2023-02-25T11:21:53.918Z,2.28
2023-02-25T11:24:37.375Z,2.65
2023-02-25T11:27:07.401Z,2.72
2023-02-25T11:29:41.364Z,4.20
2023-02-25T11:32:21.713Z,4.05
2023-02-25T11:35:09.033Z,2.92
2023-02-25T11:37:43.047Z,1.80
2023-02-25T11:40:33.232Z,1.55
2023-02-25T11:43:06.069Z,2.17
2023-02-25T11:45:52.874Z,1.23
2023-02-25T11:48:34.457Z,1.25
2023-02-25T11:51:20.298Z,1.85
2023-02-25T11:54:25.892Z,1.90
2023-02-25T11:57:05.636Z,1.58
2023-02-25T12:00:20.798Z,0.82
2023-02-25T12:03:23.443Z,0.90
2023-02-25T12:06:08.262Z,0.95
2023-02-25T12:09:05.783Z,1.02
2023-02-25T12:12:24.818Z,0.98
2023-02-25T12:15:12.601Z,1.27
2023-02-25T12:18:01.667Z,1.10
2023-02-25T12:20:51.089Z,1.00
2023-02-25T12:23:40.810Z,0.90
2023-02-25T12:26:34.180Z,1.33
2023-02-25T12:29:16.346Z,0.90
2023-02-25T12:32:20.688Z,0.95
2023-02-25T12:35:34.623Z,0.88
2023-02-25T12:38:57.315Z,1.20
2023-02-25T12:41:40.536Z,0.93
2023-02-25T12:44:37.221Z,0.85
2023-02-25T12:47:27.207Z,1.13
2023-02-25T12:50:18.602Z,1.40
2023-02-25T12:53:22.061Z,1.38
2023-02-25T12:56:54.335Z,0.60
2023-02-25T12:59:53.631Z,0.68
2023-02-25T13:03:15.415Z,0.75
2023-02-25T13:06:15.045Z,0.82
2023-02-25T13:09:26.638Z,1.23
2023-02-25T13:12:23.198Z,0.98
2023-02-25T13:15:10.983Z,0.57
2023-02-25T13:18:23.930Z,0.90
2023-02-25T13:21:06.230Z,0.82
2023-02-25T13:23:53.863Z,1.15
2023-02-25T13:27:10.145Z,0.85
2023-02-25T13:30:28.405Z,0.80
2023-02-25T13:33:01.200Z,0.82
2023-02-25T13:35:46.085Z,0.85
2023-02-25T13:39:13.099Z,0.90
2023-02-25T13:42:28.569Z,0.60
2023-02-25T13:45:43.394Z,0.50
2023-02-25T13:48:48.730Z,0.60
2023-02-25T13:51:53.930Z,1.05
2023-02-25T13:55:04.008Z,1.10
2023-02-25T13:57:55.811Z,0.70
2023-02-25T14:01:07.526Z,0.70
2023-02-25T14:04:12.980Z,1.25
2023-02-25T14:07:16.930Z,0.63
2023-02-25T14:10:29.430Z,0.65
2023-02-25T14:14:11.691Z,0.60
2023-02-25T14:17:09.674Z,0.60
2023-02-25T14:20:11.786Z,0.75
2023-02-25T14:22:49.092Z,0.73
2023-02-25T14:25:50.827Z,0.60
2023-02-25T14:29:21.815Z,0.77
2023-02-25T14:32:14.013Z,1.00
2023-02-25T14:34:56.108Z,0.90
2023-02-25T14:37:59.316Z,1.10
2023-02-25T14:40:40.027Z,0.80
2023-02-25T14:43:06.811Z,0.68
2023-02-25T14:46:32.022Z,0.80
2023-02-25T14:49:11.223Z,0.60
2023-02-25T14:52:02.423Z,0.60
2023-02-25T14:54:39.160Z,0.98
2023-02-25T14:57:42.933Z,1.20
2023-02-25T15:00:52.853Z,1.13
2023-02-25T15:03:51.278Z,0.82
2023-02-25T15:06:37.031Z,0.80
2023-02-25T15:09:47.842Z,1.30
2023-02-25T15:12:52.894Z,1.45
2023-02-25T15:15:47.722Z,2.63
2023-02-25T15:19:07.135Z,2.25
2023-02-25T15:21:46.363Z,3.00
2023-02-25T15:24:49.463Z,2.30
2023-02-25T15:27:56.598Z,2.63
2023-02-25T15:30:26.471Z,1.90
2023-02-25T15:33:22.787Z,1.92
2023-02-25T15:35:49.519Z,1.35
2023-02-25T15:38:41.167Z,3.13
2023-02-25T15:41:42.664Z,4.78
2023-02-25T15:44:12.480Z,5.43
2023-02-25T15:47:10.552Z,7.88
2023-02-25T15:49:38.501Z,10.98
2023-02-25T15:52:09.455Z,5.15
2023-02-25T15:54:36.224Z,3.40
2023-02-25T15:57:24.671Z,2.28
2023-02-25T15:59:57.724Z,1.88
2023-02-25T16:02:30.366Z,1.23
2023-02-25T16:05:20.435Z,1.42
2023-02-25T16:08:11.853Z,1.10
2023-02-25T16:10:48.202Z,1.02
2023-02-25T16:13:29.960Z,0.85
2023-02-25T16:15:57.968Z,0.52
2023-02-25T16:18:47.724Z,0.50
2023-02-25T16:21:26.932Z,0.93
2023-02-25T16:23:55.072Z,0.77
2023-02-25T16:26:47.807Z,0.60
2023-02-25T16:29:29.659Z,0.65
2023-02-25T16:32:32.967Z,0.75
2023-02-25T16:35:18.282Z,1.25
2023-02-25T16:38:07.903Z,0.63
2023-02-25T16:40:39.971Z,0.98
2023-02-25T16:43:14.236Z,1.20
2023-02-25T16:46:02.568Z,0.95
2023-02-25T16:48:34.605Z,0.68
2023-02-25T16:51:36.789Z,1.10
2023-02-25T16:54:33.276Z,1.40
2023-02-25T16:57:03.989Z,1.67
2023-02-25T16:59:33.825Z,1.85
2023-02-25T17:02:21.138Z,1.30
2023-02-25T17:04:54.360Z,1.17
2023-02-25T17:07:31.549Z,1.05
2023-02-25T17:10:02.420Z,1.20
2023-02-25T17:15:23.769Z,1.17
2023-02-25T17:18:10.765Z,0.82
2023-02-25T17:20:38.241Z,0.75
2023-02-25T17:23:13.104Z,0.88
2023-02-25T17:25:48.505Z,1.10
2023-02-25T17:28:25.960Z,1.10
2023-02-25T17:31:05.026Z,1.48
2023-02-25T17:33:32.136Z,1.00
2023-02-25T17:36:11.261Z,1.92
2023-02-25T17:38:39.202Z,1.30
2023-02-25T17:41:06.277Z,1.80
2023-02-25T17:43:39.058Z,1.63
2023-02-25T17:46:15.653Z,2.10
2023-02-25T17:48:51.619Z,3.10
2023-02-25T17:51:27.114Z,2.40
2023-02-25T17:54:09.206Z,1.80
2023-02-25T17:56:37.043Z,1.55
2023-02-25T17:59:14.770Z,1.05
2023-02-25T18:01:55.484Z,1.00
2023-02-25T18:04:35.351Z,0.65
2023-02-25T18:07:33.326Z,0.60
2023-02-25T18:10:01.240Z,0.70
2023-02-25T18:12:37.819Z,0.30
2023-02-25T18:15:24.396Z,0.47
2023-02-25T18:18:01.392Z,0.20
2023-02-25T18:20:35.932Z,2.70
2023-02-25T18:23:21.050Z,1.77
2023-02-25T18:26:11.105Z,1.05
2023-02-25T18:28:39.004Z,0.80
2023-02-25T18:31:06.182Z,1.10
2023-02-25T18:33:33.049Z,0.60
2023-02-25T18:36:00.519Z,0.60
2023-02-25T18:38:30.125Z,0.80
2023-02-25T18:40:57.658Z,0.75
2023-02-25T18:43:30.594Z,0.70
2023-02-25T18:45:57.755Z,0.75
2023-02-25T18:48:24.847Z,0.60
2023-02-25T18:50:52.268Z,0.95
2023-02-25T18:53:24.956Z,0.80
2023-02-25T18:55:54.412Z,0.88
2023-02-25T18:58:22.330Z,1.10
2023-02-25T19:00:57.061Z,0.90
2023-02-25T19:03:33.064Z,0.60
2023-02-25T19:06:00.437Z,1.15
2023-02-25T19:08:27.526Z,0.85
2023-02-25T19:10:55.262Z,1.50
2023-02-25T19:13:34.650Z,1.00
2023-02-25T19:16:02.143Z,0.98
2023-02-25T19:18:29.362Z,1.30
2023-02-25T19:20:56.807Z,1.20
2023-02-25T19:23:23.911Z,1.40
2023-02-25T19:25:58.290Z,1.70
2023-02-25T19:28:25.201Z,1.58
2023-02-25T19:30:52.135Z,1.63
2023-02-25T19:33:19.061Z,1.48
2023-02-25T19:35:45.965Z,1.63
2023-02-25T19:38:18.651Z,1.85
2023-02-25T19:40:47.614Z,2.22
2023-02-25T19:43:15.981Z,4.68
2023-02-25T19:45:43.054Z,3.78
2023-02-25T19:48:10.693Z,4.03
2023-02-25T19:50:40.990Z,4.13
2023-02-25T19:53:07.992Z,3.95
2023-02-25T19:55:35.315Z,3.85
2023-02-25T19:58:02.306Z,2.88
2023-02-25T20:00:29.437Z,2.50
2023-02-25T20:02:56.337Z,2.22
2023-02-25T20:05:24.480Z,1.85
2023-02-25T20:07:51.968Z,2.00
2023-02-25T20:10:19.709Z,2.75
2023-02-25T20:12:47.809Z,2.78
2023-02-25T20:15:16.175Z,2.30
2023-02-25T20:17:45.268Z,2.05
2023-02-25T20:20:14.587Z,1.75
2023-02-25T20:22:42.341Z,2.25
2023-02-25T20:25:10.323Z,1.55
2023-02-25T20:27:39.613Z,1.70
2023-02-25T20:30:07.722Z,2.50
2023-02-25T20:32:34.928Z,3.08
2023-02-25T20:35:02.303Z,2.40
2023-02-25T20:37:35.544Z,2.63
2023-02-25T20:40:04.025Z,2.65
2023-02-25T20:42:31.755Z,2.67
2023-02-25T20:45:00.252Z,2.05
2023-02-25T20:47:38.807Z,2.40
2023-02-25T20:50:07.830Z,2.33
2023-02-25T20:52:34.775Z,2.35
2023-02-25T20:55:01.696Z,2.30
2023-02-25T20:57:28.647Z,3.45
2023-02-25T20:59:55.576Z,2.35
2023-02-25T21:02:22.988Z,2.60
2023-02-25T21:04:50.479Z,1.40
2023-02-25T21:07:17.562Z,1.30
2023-02-25T21:09:44.447Z,1.08
2023-02-25T21:12:11.374Z,1.52
2023-02-25T21:14:38.244Z,0.82
2023-02-25T21:17:09.306Z,1.05
2023-02-25T21:19:38.719Z,1.45
2023-02-25T21:22:07.267Z,1.25
2023-02-25T21:24:34.905Z,1.42
2023-02-25T21:27:02.431Z,2.00
2023-02-25T21:29:29.533Z,2.72
2023-02-25T21:31:56.699Z,3.63
2023-02-25T21:34:23.572Z,2.25
2023-02-25T21:36:50.449Z,2.47
2023-02-25T21:39:17.295Z,2.10
2023-02-25T21:41:45.014Z,2.17
2023-02-25T21:44:12.658Z,1.52
2023-02-25T21:46:40.145Z,1.08
2023-02-25T21:49:07.118Z,1.33
2023-02-25T21:51:33.989Z,1.40
2023-02-25T21:54:02.258Z,0.90
2023-02-25T21:56:30.826Z,1.10
2023-02-25T21:59:03.850Z,1.50
2023-02-25T22:01:40.901Z,1.35
2023-02-25T22:04:09.766Z,1.38
2023-02-25T22:06:36.978Z,1.30
2023-02-25T22:09:04.591Z,1.40
2023-02-25T22:11:35.609Z,1.50
2023-02-25T22:14:05.579Z,1.70
2023-02-25T22:16:33.506Z,1.77
2023-02-25T22:19:00.555Z,1.65
2023-02-25T22:21:33.447Z,1.73
2023-02-25T22:24:02.704Z,2.05
2023-02-25T22:26:32.827Z,1.73
2023-02-25T22:29:03.911Z,1.88
2023-02-25T22:31:32.706Z,1.85
2023-02-25T22:34:00.733Z,1.85
2023-02-25T22:36:28.233Z,2.03
2023-02-25T22:38:56.442Z,1.38
2023-02-25T22:41:27.956Z,1.30
2023-02-25T22:43:56.765Z,1.30
2023-02-25T22:46:35.926Z,0.93
2023-02-25T22:49:04.740Z,0.77
2023-02-25T22:51:42.827Z,0.95
2023-02-25T22:54:18.743Z,1.20
2023-02-25T22:56:47.786Z,1.63
2023-02-25T22:59:14.596Z,0.98
2023-02-25T23:01:41.725Z,0.80
2023-02-25T23:04:08.604Z,0.93
2023-02-25T23:06:43.544Z,0.65
2023-02-25T23:09:13.565Z,0.90
2023-02-25T23:11:42.327Z,0.75
2023-02-25T23:14:09.888Z,0.60
2023-02-25T23:16:46.995Z,0.50
2023-02-25T23:19:18.304Z,0.50
2023-02-25T23:21:45.657Z,0.65
2023-02-25T23:24:18.977Z,0.52
2023-02-25T23:26:50.643Z,0.50
2023-02-25T23:29:17.939Z,0.70
2023-02-25T23:31:48.341Z,0.50
2023-02-25T23:34:23.307Z,0.80
2023-02-25T23:36:50.876Z,1.60
2023-02-25T23:39:18.490Z,2.20
2023-02-25T23:41:45.541Z,2.10
2023-02-25T23:44:14.110Z,3.38
2023-02-25T23:46:45.100Z,4.20
2023-02-25T23:49:15.044Z,3.22
2023-02-25T23:51:45.165Z,2.30
2023-02-25T23:54:16.972Z,1.73
2023-02-25T23:56:43.938Z,1.73
2023-02-25T23:59:11.470Z,1.13
